New York, NY (10129)

3:38 AM EST on December 07, 2016 (GMT -0500)
New York Downtown Manhattan/w | | Change Station

Elev 7 ft 40.70 °N, 74.01 °W | Updated 3 minutes ago

Overcast
Overcast
43 °F
Feels Like 38 °F
N
9
Wind Variable Wind from NE

Today
High -- | Low -- °F
--% Chance of Precip.
Yesterday
High -- | Low -- °F
Precip. -- in
Pressure 30.42 in
Visibility -9999.0 miles
Clouds Mostly Cloudy 1100 ft
Mostly Cloudy 1400 ft
Overcast 3700 ft
Windchill 38 °F
Dew Point 41 °F
Humidity 93%
Rainfall 0.00 in
Snow Depth Not available.
7:06 AM 4:28 PM
Waxing Crescent, 50% visible
METAR KJRB 070835Z AUTO 05008KT BKN011 BKN014 OVC037 06/05 A2990 RMK AO2 SLP299 PWINO FZRANO RVRNO
Pressure 30.42 in
Visibility -9999.0 miles
Clouds Mostly Cloudy 1100 ft
Mostly Cloudy 1400 ft
Overcast 3700 ft
Windchill 38 °F
Dew Point 41 °F
Humidity 93%
Rainfall 0.00 in
Snow Depth Not available.
7:06 AM 4:28 PM
Waxing Crescent, 50% visible
METAR KJRB 070835Z AUTO 05008KT BKN011 BKN014 OVC037 06/05 A2990 RMK AO2 SLP299 PWINO FZRANO RVRNO

10-Day Weather Forecast

Almanac

Astronomy

Dec. 07, 2016 Rise Set
Actual Time
Civil Twilight
Nautical Twilight
Astronomical Twilight
Moon
Length of Visible Light
Length of Day
Tomorrow will be .
, % of the Moon is Illuminated

Today's Extremes

State Highs State Lows

Community

WunderPhotos

Upload Photos

1,956,104 photos uploaded!

WunderBlog® & News

Nearby

Air Quality

  Air Quality AQ Index Pollutant
Not available.

Snow Depth

Station Depth Elevation

Earthquake Activity

City Distance Mag. Time & Date
Minimum magnitude displayed is 2.5.

Coastal Water Temperatures

Place Temperature

Stations

Nearby Weather Stations

Station Location Temp. Windchill Dew Point Humidity Wind Precip. Elev Updated Type
                   

Watches & Warnings

There are currently no watches in effect.